EPSC/SZZ METAR and TAF weather

Enter ICAO airport designator
Station Type Date Time Source
EPSC METAR 2019/08/19 22:30 UTC NOAA

EPSC 192230Z 11004KT CAVOK 11/10 Q1018


Station Type Date Time Source
EPSC Decoded METAR 2019/08/19 22:30 UTC NOAA

Szczecin, Poland (EPSC) 53-24N 014-37E 3M
Aug 19, 2019 - 06:30 PM EDT / 2019.08.19 2230 UTC
Wind: from the ESE (110 degrees) at 5 MPH (4 KT):0
Visibility: greater than 7 mile(s):0
Temperature: 51 F (11 C)
Dew Point: 50 F (10 C)
Relative Humidity: 93%
Pressure (altimeter): 30.06 in. Hg (1018 hPa)
ob: EPSC 192230Z 11004KT CAVOK 11/10 Q1018
cycle: 22

Station Type Date Time Source
EPSC TAF 2019/08/19 18:33 UTC NOAA

TAF EPSC 191730Z 1918/2018 25010KT CAVOK
BECMG 1918/1921 19006KT

Example: see airport list